sensor_id;sensor_type;location;lat;lon;timestamp;pressure;altitude;pressure_sealevel;temperature;humidity
68822;BME280;55834;50.870;4.606;2023-10-08T00:01:34;101711.88;;;16.16;42.07
68822;BME280;55834;50.870;4.606;2023-10-08T00:04:00;101711.56;;;15.99;42.92
68822;BME280;55834;50.870;4.606;2023-10-08T00:06:29;101720.75;;;16.15;42.41
68822;BME280;55834;50.870;4.606;2023-10-08T00:08:55;101705.09;;;16.06;43.31
68822;BME280;55834;50.870;4.606;2023-10-08T00:11:26;101710.88;;;15.69;44.27
68822;BME280;55834;50.870;4.606;2023-10-08T00:13:51;101713.28;;;16.00;43.36
68822;BME280;55834;50.870;4.606;2023-10-08T00:16:21;101712.81;;;16.14;43.12
68822;BME280;55834;50.870;4.606;2023-10-08T00:18:47;101707.94;;;16.01;42.72
68822;BME280;55834;50.870;4.606;2023-10-08T00:21:21;101713.34;;;15.73;44.21
68822;BME280;55834;50.870;4.606;2023-10-08T00:23:53;101716.63;;;15.82;43.94
68822;BME280;55834;50.870;4.606;2023-10-08T00:26:25;101712.38;;;15.76;44.45
68822;BME280;55834;50.870;4.606;2023-10-08T00:28:59;101711.88;;;15.10;44.92
68822;BME280;55834;50.870;4.606;2023-10-08T00:31:25;101722.25;;;14.29;47.51
68822;BME280;55834;50.870;4.606;2023-10-08T00:33:55;101715.22;;;15.17;45.94
68822;BME280;55834;50.870;4.606;2023-10-08T00:36:21;101712.03;;;15.33;45.76
68822;BME280;55834;50.870;4.606;2023-10-08T00:38:50;101716.63;;;15.00;47.03
68822;BME280;55834;50.870;4.606;2023-10-08T00:41:25;101715.66;;;15.03;46.89
68822;BME280;55834;50.870;4.606;2023-10-08T00:43:56;101729.00;;;15.01;45.61
68822;BME280;55834;50.870;4.606;2023-10-08T00:46:22;101733.28;;;14.77;45.67
68822;BME280;55834;50.870;4.606;2023-10-08T00:48:52;101734.19;;;15.06;45.57
68822;BME280;55834;50.870;4.606;2023-10-08T00:51:24;101733.91;;;15.13;45.59
68822;BME280;55834;50.870;4.606;2023-10-08T00:54:06;101736.22;;;15.26;45.03
68822;BME280;55834;50.870;4.606;2023-10-08T00:56:34;101726.13;;;15.37;45.28
68822;BME280;55834;50.870;4.606;2023-10-08T00:59:31;101736.91;;;15.31;45.67
68822;BME280;55834;50.870;4.606;2023-10-08T01:02:02;101732.66;;;15.53;44.81
68822;BME280;55834;50.870;4.606;2023-10-08T01:04:32;101729.38;;;15.45;44.89
68822;BME280;55834;50.870;4.606;2023-10-08T01:07:04;101741.16;;;15.38;44.79
68822;BME280;55834;50.870;4.606;2023-10-08T01:09:41;101756.06;;;14.56;46.04
68822;BME280;55834;50.870;4.606;2023-10-08T01:12:22;101742.50;;;15.23;45.31
68822;BME280;55834;50.870;4.606;2023-10-08T01:15:00;101740.44;;;15.33;44.89
68822;BME280;55834;50.870;4.606;2023-10-08T01:17:48;101749.97;;;15.10;45.39
68822;BME280;55834;50.870;4.606;2023-10-08T01:20:23;101740.59;;;14.71;45.42
68822;BME280;55834;50.870;4.606;2023-10-08T01:22:58;101724.94;;;15.18;45.80
68822;BME280;55834;50.870;4.606;2023-10-08T01:25:23;101726.25;;;15.32;44.66
68822;BME280;55834;50.870;4.606;2023-10-08T01:27:55;101727.13;;;15.60;44.75
68822;BME280;55834;50.870;4.606;2023-10-08T01:30:21;101725.19;;;15.38;44.89
68822;BME280;55834;50.870;4.606;2023-10-08T01:32:46;101722.31;;;15.44;45.07
68822;BME280;55834;50.870;4.606;2023-10-08T01:35:12;101728.19;;;15.54;44.82
68822;BME280;55834;50.870;4.606;2023-10-08T01:37:51;101726.13;;;15.37;44.63
68822;BME280;55834;50.870;4.606;2023-10-08T01:40:18;101727.09;;;15.61;44.45
68822;BME280;55834;50.870;4.606;2023-10-08T01:42:43;101732.41;;;15.61;45.23
68822;BME280;55834;50.870;4.606;2023-10-08T01:45:09;101730.41;;;15.68;45.07
68822;BME280;55834;50.870;4.606;2023-10-08T01:47:38;101732.09;;;15.70;44.46
68822;BME280;55834;50.870;4.606;2023-10-08T01:50:04;101725.94;;;15.68;44.87
68822;BME280;55834;50.870;4.606;2023-10-08T01:52:32;101725.13;;;15.40;45.06
68822;BME280;55834;50.870;4.606;2023-10-08T01:54:59;101723.56;;;15.04;46.41
68822;BME280;55834;50.870;4.606;2023-10-08T01:57:25;101721.94;;;15.28;46.11
68822;BME280;55834;50.870;4.606;2023-10-08T01:59:50;101719.09;;;15.34;45.54
68822;BME280;55834;50.870;4.606;2023-10-08T02:02:16;101711.94;;;15.37;45.99
68822;BME280;55834;50.870;4.606;2023-10-08T02:04:41;101705.19;;;15.25;46.25
68822;BME280;55834;50.870;4.606;2023-10-08T02:07:07;101705.88;;;15.31;46.59
68822;BME280;55834;50.870;4.606;2023-10-08T02:09:39;101701.34;;;15.35;46.07
68822;BME280;55834;50.870;4.606;2023-10-08T02:12:05;101706.47;;;15.13;46.21
68822;BME280;55834;50.870;4.606;2023-10-08T02:14:31;101699.94;;;15.23;46.02
68822;BME280;55834;50.870;4.606;2023-10-08T02:16:58;101703.59;;;15.19;46.36
68822;BME280;55834;50.870;4.606;2023-10-08T02:19:28;101698.34;;;15.18;45.75
68822;BME280;55834;50.870;4.606;2023-10-08T02:21:55;101696.88;;;15.07;46.30
68822;BME280;55834;50.870;4.606;2023-10-08T02:24:21;101695.13;;;15.08;46.21
68822;BME280;55834;50.870;4.606;2023-10-08T02:26:50;101711.88;;;14.52;47.94
68822;BME280;55834;50.870;4.606;2023-10-08T02:29:15;101699.53;;;14.50;48.86
68822;BME280;55834;50.870;4.606;2023-10-08T02:31:41;101694.44;;;14.73;48.47
68822;BME280;55834;50.870;4.606;2023-10-08T02:34:07;101693.63;;;14.70;48.29
68822;BME280;55834;50.870;4.606;2023-10-08T02:36:39;101687.31;;;14.74;46.72
68822;BME280;55834;50.870;4.606;2023-10-08T02:39:08;101694.31;;;14.47;48.54
68822;BME280;55834;50.870;4.606;2023-10-08T02:41:43;101695.25;;;14.46;48.77
68822;BME280;55834;50.870;4.606;2023-10-08T02:44:13;101702.53;;;14.37;48.92
68822;BME280;55834;50.870;4.606;2023-10-08T02:46:45;101703.66;;;13.65;50.73
68822;BME280;55834;50.870;4.606;2023-10-08T02:49:16;101723.56;;;14.14;50.53
68822;BME280;55834;50.870;4.606;2023-10-08T02:51:52;101719.66;;;14.58;49.02
68822;BME280;55834;50.870;4.606;2023-10-08T02:54:19;101741.16;;;14.51;48.62
68822;BME280;55834;50.870;4.606;2023-10-08T02:56:52;101722.00;;;14.69;48.58
68822;BME280;55834;50.870;4.606;2023-10-08T02:59:20;101718.84;;;14.86;48.59
68822;BME280;55834;50.870;4.606;2023-10-08T03:01:50;101728.25;;;14.68;48.45
68822;BME280;55834;50.870;4.606;2023-10-08T03:04:21;101712.84;;;14.79;48.80
68822;BME280;55834;50.870;4.606;2023-10-08T03:06:49;101721.41;;;14.89;48.04
68822;BME280;55834;50.870;4.606;2023-10-08T03:09:22;101716.91;;;14.91;48.23
68822;BME280;55834;50.870;4.606;2023-10-08T03:11:57;101731.44;;;15.07;48.14
68822;BME280;55834;50.870;4.606;2023-10-08T03:14:24;101727.09;;;15.05;47.82
68822;BME280;55834;50.870;4.606;2023-10-08T03:16:53;101730.34;;;14.86;48.75
68822;BME280;55834;50.870;4.606;2023-10-08T03:19:22;101733.97;;;14.84;49.61
68822;BME280;55834;50.870;4.606;2023-10-08T03:21:48;101739.59;;;15.03;48.60
68822;BME280;55834;50.870;4.606;2023-10-08T03:24:19;101730.25;;;15.18;48.60
68822;BME280;55834;50.870;4.606;2023-10-08T03:26:59;101732.53;;;15.30;48.15
68822;BME280;55834;50.870;4.606;2023-10-08T03:29:35;101731.59;;;15.31;48.31
68822;BME280;55834;50.870;4.606;2023-10-08T03:32:11;101734.84;;;15.12;48.42
68822;BME280;55834;50.870;4.606;2023-10-08T03:34:47;101735.06;;;15.05;48.08
68822;BME280;55834;50.870;4.606;2023-10-08T03:37:18;101741.22;;;15.07;48.65
68822;BME280;55834;50.870;4.606;2023-10-08T03:39:50;101726.78;;;15.16;47.90
68822;BME280;55834;50.870;4.606;2023-10-08T03:42:51;101745.88;;;15.00;47.70
68822;BME280;55834;50.870;4.606;2023-10-08T03:45:16;101731.41;;;15.09;48.00
68822;BME280;55834;50.870;4.606;2023-10-08T03:48:02;101745.25;;;14.92;48.77
68822;BME280;55834;50.870;4.606;2023-10-08T03:50:32;101744.84;;;15.04;48.60
68822;BME280;55834;50.870;4.606;2023-10-08T03:53:07;101745.69;;;15.06;48.48
68822;BME280;55834;50.870;4.606;2023-10-08T03:55:39;101753.53;;;15.11;48.21
68822;BME280;55834;50.870;4.606;2023-10-08T03:58:08;101746.56;;;15.07;48.82
68822;BME280;55834;50.870;4.606;2023-10-08T04:00:53;101742.47;;;14.95;49.42
68822;BME280;55834;50.870;4.606;2023-10-08T04:03:36;101749.53;;;14.96;48.45
68822;BME280;55834;50.870;4.606;2023-10-08T04:06:30;101750.44;;;14.97;48.97
68822;BME280;55834;50.870;4.606;2023-10-08T04:09:00;101750.16;;;15.04;48.75
68822;BME280;55834;50.870;4.606;2023-10-08T04:11:39;101743.16;;;15.02;48.95
68822;BME280;55834;50.870;4.606;2023-10-08T04:14:19;101743.06;;;15.05;48.76
68822;BME280;55834;50.870;4.606;2023-10-08T04:16:45;101748.22;;;14.81;49.21
68822;BME280;55834;50.870;4.606;2023-10-08T04:19:12;101756.66;;;14.66;50.12
68822;BME280;55834;50.870;4.606;2023-10-08T04:21:38;101765.75;;;14.57;49.84
68822;BME280;55834;50.870;4.606;2023-10-08T04:24:06;101762.72;;;14.71;50.12
68822;BME280;55834;50.870;4.606;2023-10-08T04:26:34;101757.41;;;14.71;50.07
68822;BME280;55834;50.870;4.606;2023-10-08T04:29:00;101767.41;;;14.61;50.20
68822;BME280;55834;50.870;4.606;2023-10-08T04:31:34;101763.22;;;14.53;50.32
68822;BME280;55834;50.870;4.606;2023-10-08T04:34:04;101766.97;;;14.44;51.08
68822;BME280;55834;50.870;4.606;2023-10-08T04:36:45;101761.91;;;14.36;50.99
68822;BME280;55834;50.870;4.606;2023-10-08T04:39:14;101764.59;;;14.35;50.62
68822;BME280;55834;50.870;4.606;2023-10-08T04:41:46;101771.78;;;14.31;51.41
68822;BME280;55834;50.870;4.606;2023-10-08T04:44:13;101765.94;;;14.18;51.89
68822;BME280;55834;50.870;4.606;2023-10-08T04:46:43;101769.41;;;14.20;51.11
68822;BME280;55834;50.870;4.606;2023-10-08T04:49:11;101773.72;;;13.92;51.92
68822;BME280;55834;50.870;4.606;2023-10-08T04:52:03;101773.34;;;14.07;51.87
68822;BME280;55834;50.870;4.606;2023-10-08T04:54:44;101769.06;;;14.00;51.44
68822;BME280;55834;50.870;4.606;2023-10-08T04:57:20;101778.56;;;14.10;52.02
68822;BME280;55834;50.870;4.606;2023-10-08T04:59:51;101781.81;;;14.21;51.38
68822;BME280;55834;50.870;4.606;2023-10-08T05:02:17;101787.13;;;14.21;50.81
68822;BME280;55834;50.870;4.606;2023-10-08T05:04:49;101783.88;;;14.10;51.11
68822;BME280;55834;50.870;4.606;2023-10-08T05:07:21;101778.56;;;14.10;50.79
68822;BME280;55834;50.870;4.606;2023-10-08T05:10:06;101781.91;;;14.17;50.93
68822;BME280;55834;50.870;4.606;2023-10-08T05:12:32;101777.59;;;14.13;51.09
68822;BME280;55834;50.870;4.606;2023-10-08T05:15:04;101773.59;;;13.96;51.18
68822;BME280;55834;50.870;4.606;2023-10-08T05:17:44;101777.19;;;13.95;51.94
68822;BME280;55834;50.870;4.606;2023-10-08T05:20:19;101776.06;;;14.04;51.75
68822;BME280;55834;50.870;4.606;2023-10-08T05:23:16;101771.97;;;13.92;51.70
68822;BME280;55834;50.870;4.606;2023-10-08T05:26:02;101772.84;;;13.91;52.47
68822;BME280;55834;50.870;4.606;2023-10-08T05:28:31;101780.56;;;14.00;51.92
68822;BME280;55834;50.870;4.606;2023-10-08T05:31:08;101783.44;;;13.93;51.13
68822;BME280;55834;50.870;4.606;2023-10-08T05:33:39;101779.78;;;13.97;51.77
68822;BME280;55834;50.870;4.606;2023-10-08T05:36:11;101776.66;;;13.81;51.28
68822;BME280;55834;50.870;4.606;2023-10-08T05:38:43;101773.78;;;13.89;52.28
68822;BME280;55834;50.870;4.606;2023-10-08T05:41:24;101774.19;;;13.73;51.57
68822;BME280;55834;50.870;4.606;2023-10-08T05:43:54;101774.94;;;13.79;52.09
68822;BME280;55834;50.870;4.606;2023-10-08T05:46:40;101781.81;;;13.87;52.19
68822;BME280;55834;50.870;4.606;2023-10-08T05:49:16;101785.25;;;13.91;51.95
68822;BME280;55834;50.870;4.606;2023-10-08T05:51:51;101779.09;;;13.89;51.48
68822;BME280;55834;50.870;4.606;2023-10-08T05:54:21;101776.16;;;13.65;52.05
68822;BME280;55834;50.870;4.606;2023-10-08T05:57:10;101773.75;;;13.56;52.63
68822;BME280;55834;50.870;4.606;2023-10-08T05:59:45;101773.81;;;13.51;52.78
68822;BME280;55834;50.870;4.606;2023-10-08T06:02:24;101768.19;;;13.67;53.21
68822;BME280;55834;50.870;4.606;2023-10-08T06:05:06;101774.00;;;13.81;52.42
68822;BME280;55834;50.870;4.606;2023-10-08T06:07:48;101773.94;;;13.84;52.21
68822;BME280;55834;50.870;4.606;2023-10-08T06:10:17;101775.56;;;13.88;52.67
68822;BME280;55834;50.870;4.606;2023-10-08T06:13:13;101789.63;;;13.92;52.53
68822;BME280;55834;50.870;4.606;2023-10-08T06:15:43;101781.53;;;13.98;52.58
68822;BME280;55834;50.870;4.606;2023-10-08T06:18:30;101781.31;;;14.06;52.72
68822;BME280;55834;50.870;4.606;2023-10-08T06:21:04;101794.41;;;14.13;52.15
68822;BME280;55834;50.870;4.606;2023-10-08T06:23:39;101796.13;;;14.16;52.33
68822;BME280;55834;50.870;4.606;2023-10-08T06:26:04;101797.09;;;14.12;52.06
68822;BME280;55834;50.870;4.606;2023-10-08T06:28:37;101799.72;;;14.13;52.44
68822;BME280;55834;50.870;4.606;2023-10-08T06:31:04;101809.25;;;14.20;52.72
68822;BME280;55834;50.870;4.606;2023-10-08T06:33:32;101812.03;;;14.16;52.55
68822;BME280;55834;50.870;4.606;2023-10-08T06:36:03;101812.50;;;13.97;52.86
68822;BME280;55834;50.870;4.606;2023-10-08T06:38:46;101821.00;;;14.12;53.71
68822;BME280;55834;50.870;4.606;2023-10-08T06:41:15;101826.72;;;14.29;53.25
68822;BME280;55834;50.870;4.606;2023-10-08T06:43:44;101825.59;;;14.39;53.03
68822;BME280;55834;50.870;4.606;2023-10-08T06:46:16;101821.84;;;14.47;53.18
68822;BME280;55834;50.870;4.606;2023-10-08T06:48:45;101821.78;;;14.50;53.05
68822;BME280;55834;50.870;4.606;2023-10-08T06:51:12;101817.47;;;14.44;53.02
68822;BME280;55834;50.870;4.606;2023-10-08T06:53:44;101825.28;;;14.52;53.12
68822;BME280;55834;50.870;4.606;2023-10-08T06:56:13;101820.63;;;14.60;53.04
68822;BME280;55834;50.870;4.606;2023-10-08T06:58:41;101817.56;;;14.74;53.15
68822;BME280;55834;50.870;4.606;2023-10-08T07:01:13;101815.50;;;14.83;52.87
68822;BME280;55834;50.870;4.606;2023-10-08T07:03:46;101816.09;;;14.93;52.79
68822;BME280;55834;50.870;4.606;2023-10-08T07:06:14;101821.28;;;14.99;52.55
68822;BME280;55834;50.870;4.606;2023-10-08T07:08:51;101819.22;;;15.07;52.63
68822;BME280;55834;50.870;4.606;2023-10-08T07:11:21;101812.72;;;15.18;52.37
68822;BME280;55834;50.870;4.606;2023-10-08T07:13:46;101818.63;;;15.27;51.64
68822;BME280;55834;50.870;4.606;2023-10-08T07:16:12;101816.72;;;15.32;51.59
68822;BME280;55834;50.870;4.606;2023-10-08T07:18:38;101811.00;;;15.45;51.77
68822;BME280;55834;50.870;4.606;2023-10-08T07:21:04;101818.59;;;15.57;51.77
68822;BME280;55834;50.870;4.606;2023-10-08T07:23:38;101819.00;;;15.71;51.41
68822;BME280;55834;50.870;4.606;2023-10-08T07:26:18;101824.72;;;15.87;50.88
68822;BME280;55834;50.870;4.606;2023-10-08T07:28:49;101826.00;;;16.02;50.53
68822;BME280;55834;50.870;4.606;2023-10-08T07:31:18;101813.09;;;16.15;50.88
68822;BME280;55834;50.870;4.606;2023-10-08T07:33:49;101822.56;;;16.25;50.47
68822;BME280;55834;50.870;4.606;2023-10-08T07:36:41;101833.13;;;16.28;50.22
68822;BME280;55834;50.870;4.606;2023-10-08T07:39:07;101822.56;;;16.25;50.30
68822;BME280;55834;50.870;4.606;2023-10-08T07:41:34;101832.25;;;16.28;50.36
68822;BME280;55834;50.870;4.606;2023-10-08T07:44:00;101842.47;;;16.40;50.02
68822;BME280;55834;50.870;4.606;2023-10-08T07:46:26;101851.69;;;16.56;49.53
68822;BME280;55834;50.870;4.606;2023-10-08T07:48:55;101841.41;;;16.69;49.48
68822;BME280;55834;50.870;4.606;2023-10-08T07:51:20;101841.03;;;16.80;49.31
68822;BME280;55834;50.870;4.606;2023-10-08T07:53:49;101839.00;;;16.86;49.37
68822;BME280;55834;50.870;4.606;2023-10-08T07:56:19;101845.75;;;16.97;49.57
68822;BME280;55834;50.870;4.606;2023-10-08T07:58:45;101849.94;;;17.04;49.15
68822;BME280;55834;50.870;4.606;2023-10-08T08:01:10;101851.38;;;17.12;49.46
68822;BME280;55834;50.870;4.606;2023-10-08T08:03:39;101845.69;;;17.22;49.47
68822;BME280;55834;50.870;4.606;2023-10-08T08:06:09;101846.38;;;17.27;49.09
68822;BME280;55834;50.870;4.606;2023-10-08T08:08:38;101836.44;;;17.30;49.45
68822;BME280;55834;50.870;4.606;2023-10-08T08:11:08;101835.53;;;17.31;49.21
68822;BME280;55834;50.870;4.606;2023-10-08T08:13:43;101836.44;;;17.30;48.98
68822;BME280;55834;50.870;4.606;2023-10-08T08:16:13;101833.97;;;17.26;49.28
68822;BME280;55834;50.870;4.606;2023-10-08T08:21:12;101827.97;;;17.43;49.58
68822;BME280;55834;50.870;4.606;2023-10-08T08:23:47;101836.53;;;17.51;49.29
68822;BME280;55834;50.870;4.606;2023-10-08T08:26:24;101834.25;;;17.64;49.82
68822;BME280;55834;50.870;4.606;2023-10-08T08:29:00;101828.53;;;17.73;48.50
68822;BME280;55834;50.870;4.606;2023-10-08T08:31:30;101826.31;;;17.84;49.71
68822;BME280;55834;50.870;4.606;2023-10-08T08:34:01;101831.09;;;17.98;49.26
68822;BME280;55834;50.870;4.606;2023-10-08T08:36:39;101833.97;;;18.14;48.70
68822;BME280;55834;50.870;4.606;2023-10-08T08:39:11;101828.16;;;18.24;48.91
68822;BME280;55834;50.870;4.606;2023-10-08T08:41:37;101836.19;;;18.24;48.77
68822;BME280;55834;50.870;4.606;2023-10-08T08:44:03;101835.72;;;18.15;48.64
68822;BME280;55834;50.870;4.606;2023-10-08T08:46:35;101834.31;;;18.26;48.71
68822;BME280;55834;50.870;4.606;2023-10-08T08:49:04;101835.44;;;18.41;49.09
68822;BME280;55834;50.870;4.606;2023-10-08T08:51:30;101827.72;;;18.56;48.92
68822;BME280;55834;50.870;4.606;2023-10-08T08:53:56;101840.13;;;18.57;48.67
68822;BME280;55834;50.870;4.606;2023-10-08T08:56:26;101840.53;;;18.68;48.61
68822;BME280;55834;50.870;4.606;2023-10-08T08:58:51;101861.06;;;18.86;48.72
68822;BME280;55834;50.870;4.606;2023-10-08T09:01:19;101846.41;;;18.95;47.97
68822;BME280;55834;50.870;4.606;2023-10-08T09:03:44;101853.66;;;18.93;47.63
68822;BME280;55834;50.870;4.606;2023-10-08T09:06:13;101855.28;;;18.77;48.58
68822;BME280;55834;50.870;4.606;2023-10-08T09:08:38;101847.97;;;18.61;48.10
68822;BME280;55834;50.870;4.606;2023-10-08T09:11:08;101859.31;;;18.66;48.65
68822;BME280;55834;50.870;4.606;2023-10-08T09:13:34;101856.28;;;18.74;48.25
68822;BME280;55834;50.870;4.606;2023-10-08T09:16:16;101852.91;;;18.70;48.43
68822;BME280;55834;50.870;4.606;2023-10-08T09:18:47;101857.41;;;18.89;48.82
68822;BME280;55834;50.870;4.606;2023-10-08T09:21:19;101849.84;;;18.78;48.60
68822;BME280;55834;50.870;4.606;2023-10-08T09:23:51;101854.75;;;18.68;48.93
68822;BME280;55834;50.870;4.606;2023-10-08T09:26:17;101850.34;;;18.67;49.04
68822;BME280;55834;50.870;4.606;2023-10-08T09:28:47;101842.47;;;18.23;50.36
68822;BME280;55834;50.870;4.606;2023-10-08T09:31:14;101845.91;;;18.46;50.61
68822;BME280;55834;50.870;4.606;2023-10-08T09:33:40;101846.34;;;18.57;50.39
68822;BME280;55834;50.870;4.606;2023-10-08T09:36:07;101847.94;;;18.82;50.04
68822;BME280;55834;50.870;4.606;2023-10-08T09:38:36;101858.50;;;19.04;49.59
68822;BME280;55834;50.870;4.606;2023-10-08T09:41:03;101864.75;;;18.84;48.92
68822;BME280;55834;50.870;4.606;2023-10-08T09:43:29;101864.78;;;19.03;49.57
68822;BME280;55834;50.870;4.606;2023-10-08T09:46:09;101856.78;;;19.22;49.26
68822;BME280;55834;50.870;4.606;2023-10-08T09:48:41;101855.53;;;19.30;49.39
68822;BME280;55834;50.870;4.606;2023-10-08T09:51:07;101849.56;;;19.43;49.11
68822;BME280;55834;50.870;4.606;2023-10-08T09:56:29;101851.44;;;19.59;49.08
68822;BME280;55834;50.870;4.606;2023-10-08T09:58:54;101850.69;;;19.56;49.35
68822;BME280;55834;50.870;4.606;2023-10-08T10:01:20;101843.72;;;19.71;48.74
68822;BME280;55834;50.870;4.606;2023-10-08T10:03:48;101842.38;;;19.98;49.03
68822;BME280;55834;50.870;4.606;2023-10-08T10:06:15;101839.69;;;20.16;48.27
68822;BME280;55834;50.870;4.606;2023-10-08T10:08:43;101841.13;;;20.05;47.56
68822;BME280;55834;50.870;4.606;2023-10-08T10:11:08;101841.19;;;20.04;48.48
68822;BME280;55834;50.870;4.606;2023-10-08T10:13:41;101845.28;;;20.28;47.51
68822;BME280;55834;50.870;4.606;2023-10-08T10:16:06;101836.19;;;20.48;47.83
68822;BME280;55834;50.870;4.606;2023-10-08T10:18:34;101839.31;;;20.06;47.35
68822;BME280;55834;50.870;4.606;2023-10-08T10:21:27;101845.69;;;19.67;47.98
68822;BME280;55834;50.870;4.606;2023-10-08T10:23:54;101846.72;;;19.08;49.95
68822;BME280;55834;50.870;4.606;2023-10-08T10:31:43;101831.75;;;20.32;48.27
68822;BME280;55834;50.870;4.606;2023-10-08T10:34:11;101838.03;;;20.31;47.69
68822;BME280;55834;50.870;4.606;2023-10-08T10:36:39;101838.19;;;20.27;47.98
68822;BME280;55834;50.870;4.606;2023-10-08T10:39:06;101846.59;;;20.55;47.79
68822;BME280;55834;50.870;4.606;2023-10-08T10:42:04;101847.72;;;20.68;47.23
68822;BME280;55834;50.870;4.606;2023-10-08T10:44:32;101850.06;;;20.74;46.28
68822;BME280;55834;50.870;4.606;2023-10-08T10:46:59;101852.59;;;20.77;46.57
68822;BME280;55834;50.870;4.606;2023-10-08T10:49:50;101844.28;;;20.82;46.22
68822;BME280;55834;50.870;4.606;2023-10-08T10:52:28;101842.66;;;20.62;47.50
68822;BME280;55834;50.870;4.606;2023-10-08T10:55:06;101839.66;;;20.68;47.01
68822;BME280;55834;50.870;4.606;2023-10-08T10:57:56;101842.13;;;20.55;46.22
68822;BME280;55834;50.870;4.606;2023-10-08T11:00:37;101848.97;;;20.61;47.80
68822;BME280;55834;50.870;4.606;2023-10-08T11:03:06;101846.63;;;20.37;48.37
68822;BME280;55834;50.870;4.606;2023-10-08T11:05:59;101849.19;;;20.23;48.50
68822;BME280;55834;50.870;4.606;2023-10-08T11:08:30;101844.22;;;20.48;47.90
68822;BME280;55834;50.870;4.606;2023-10-08T11:11:00;101843.50;;;20.80;47.30
68822;BME280;55834;50.870;4.606;2023-10-08T11:13:33;101840.88;;;20.95;46.70
68822;BME280;55834;50.870;4.606;2023-10-08T11:16:07;101836.53;;;21.09;46.41
68822;BME280;55834;50.870;4.606;2023-10-08T11:18:42;101839.41;;;21.22;45.85
68822;BME280;55834;50.870;4.606;2023-10-08T11:21:09;101824.78;;;21.27;46.31
68822;BME280;55834;50.870;4.606;2023-10-08T11:23:46;101826.03;;;20.88;46.91
68822;BME280;55834;50.870;4.606;2023-10-08T11:26:18;101825.28;;;21.18;46.79
68822;BME280;55834;50.870;4.606;2023-10-08T11:28:44;101834.81;;;21.24;45.60
68822;BME280;55834;50.870;4.606;2023-10-08T11:31:15;101826.69;;;21.25;45.48
68822;BME280;55834;50.870;4.606;2023-10-08T11:33:46;101821.94;;;21.46;46.01
68822;BME280;55834;50.870;4.606;2023-10-08T11:36:21;101810.81;;;21.52;44.88
68822;BME280;55834;50.870;4.606;2023-10-08T11:38:54;101815.41;;;21.18;45.75
68822;BME280;55834;50.870;4.606;2023-10-08T11:41:26;101807.63;;;21.30;45.79
68822;BME280;55834;50.870;4.606;2023-10-08T11:43:57;101804.63;;;21.36;45.48
68822;BME280;55834;50.870;4.606;2023-10-08T11:46:26;101797.94;;;21.43;45.03
68822;BME280;55834;50.870;4.606;2023-10-08T11:49:13;101791.41;;;21.63;44.51
68822;BME280;55834;50.870;4.606;2023-10-08T11:51:45;101785.22;;;21.61;44.85
68822;BME280;55834;50.870;4.606;2023-10-08T11:54:11;101795.53;;;21.69;45.09
68822;BME280;55834;50.870;4.606;2023-10-08T11:56:40;101792.00;;;21.68;43.95
68822;BME280;55834;50.870;4.606;2023-10-08T11:59:05;101788.84;;;21.76;44.58
68822;BME280;55834;50.870;4.606;2023-10-08T12:01:38;101789.75;;;21.91;44.81
68822;BME280;55834;50.870;4.606;2023-10-08T12:04:08;101790.22;;;21.83;44.52
68822;BME280;55834;50.870;4.606;2023-10-08T12:06:39;101788.38;;;21.53;44.65
68822;BME280;55834;50.870;4.606;2023-10-08T12:09:12;101777.84;;;21.65;44.92
68822;BME280;55834;50.870;4.606;2023-10-08T12:11:38;101775.81;;;21.84;44.86
68822;BME280;55834;50.870;4.606;2023-10-08T12:14:05;101778.50;;;21.84;44.84
68822;BME280;55834;50.870;4.606;2023-10-08T12:16:30;101778.41;;;21.55;44.67
68822;BME280;55834;50.870;4.606;2023-10-08T12:19:00;101777.94;;;21.33;45.43
68822;BME280;55834;50.870;4.606;2023-10-08T12:21:26;101770.53;;;21.52;44.30
68822;BME280;55834;50.870;4.606;2023-10-08T12:23:55;101771.22;;;20.77;45.84
68822;BME280;55834;50.870;4.606;2023-10-08T12:26:20;101774.72;;;21.42;45.27
68822;BME280;55834;50.870;4.606;2023-10-08T12:28:47;101771.78;;;21.77;43.80
68822;BME280;55834;50.870;4.606;2023-10-08T12:31:16;101771.78;;;21.77;43.61
68822;BME280;55834;50.870;4.606;2023-10-08T12:33:42;101769.69;;;21.04;43.53
68822;BME280;55834;50.870;4.606;2023-10-08T12:36:11;101769.75;;;21.50;43.14
68822;BME280;55834;50.870;4.606;2023-10-08T12:38:40;101768.78;;;21.97;43.38
68822;BME280;55834;50.870;4.606;2023-10-08T12:41:07;101766.13;;;22.12;42.56
68822;BME280;55834;50.870;4.606;2023-10-08T12:43:40;101766.63;;;21.88;44.27
68822;BME280;55834;50.870;4.606;2023-10-08T12:46:11;101765.38;;;22.24;42.71
68822;BME280;55834;50.870;4.606;2023-10-08T12:48:43;101766.53;;;22.34;41.70
68822;BME280;55834;50.870;4.606;2023-10-08T12:51:10;101760.09;;;21.92;41.46
68822;BME280;55834;50.870;4.606;2023-10-08T12:53:36;101760.34;;;21.88;42.06
68822;BME280;55834;50.870;4.606;2023-10-08T12:56:09;101759.69;;;22.14;41.42
68822;BME280;55834;50.870;4.606;2023-10-08T12:58:42;101751.81;;;21.51;42.84
68822;BME280;55834;50.870;4.606;2023-10-08T13:01:12;101759.28;;;21.14;43.25
68822;BME280;55834;50.870;4.606;2023-10-08T13:03:39;101754.69;;;21.00;44.05
68822;BME280;55834;50.870;4.606;2023-10-08T13:06:09;101756.94;;;21.70;43.65
68822;BME280;55834;50.870;4.606;2023-10-08T13:08:47;101759.94;;;21.95;42.88
68822;BME280;55834;50.870;4.606;2023-10-08T13:11:12;101756.78;;;22.03;42.09
68822;BME280;55834;50.870;4.606;2023-10-08T13:13:37;101756.03;;;22.15;41.53
68822;BME280;55834;50.870;4.606;2023-10-08T13:16:03;101751.31;;;22.19;42.09
68822;BME280;55834;50.870;4.606;2023-10-08T13:18:33;101743.25;;;22.33;42.12
68822;BME280;55834;50.870;4.606;2023-10-08T13:20:58;101737.41;;;22.26;41.52
68822;BME280;55834;50.870;4.606;2023-10-08T13:23:24;101735.78;;;22.24;42.06